GCLP/LPA METAR and TAF weather

Enter ICAO airport designator
Station Type Date Time Source
GCLP METAR 2021/05/12 01:30 UTC NOAA

GCLP 120130Z 01018KT 9999 BKN030 19/13 Q1022 NOSIG


Station Type Date Time Source
GCLP Decoded METAR 2021/05/12 01:30 UTC NOAA

Gran Canaria - Canary Islands, Spain (GCLP) 27-56N 015-23W 47M
May 11, 2021 - 09:30 PM EDT / 2021.05.12 0130 UTC
Wind: from the N (010 degrees) at 21 MPH (18 KT):0
Visibility: greater than 7 mile(s):0
Sky conditions: mostly cloudy
Temperature: 66 F (19 C)
Dew Point: 55 F (13 C)
Relative Humidity: 68%
Pressure (altimeter): 30.18 in. Hg (1022 hPa)
ob: GCLP 120130Z 01018KT 9999 BKN030 19/13 Q1022 NOSIG
cycle: 1

Station Type Date Time Source
GCLP TAF 2021/05/11 21:51 UTC NOAA

TAF GCLP 112000Z 1121/1221 36021KT 9999 SCT035 TX23/1214Z TN17/1206Z PROB30
TEMPO 1121/1205 36021G31KT

Example: see airport list